sensor_id;sensor_type;location;lat;lon;timestamp;temperature;humidity
21246;DHT22;10781;50.928;4.440;2023-08-07T00:00:42;13.40;99.90
21246;DHT22;10781;50.928;4.440;2023-08-07T00:03:08;13.50;99.90
21246;DHT22;10781;50.928;4.440;2023-08-07T00:05:34;13.60;99.90
21246;DHT22;10781;50.928;4.440;2023-08-07T00:07:59;13.80;99.90
21246;DHT22;10781;50.928;4.440;2023-08-07T00:10:26;13.70;99.90
21246;DHT22;10781;50.928;4.440;2023-08-07T00:12:52;13.70;99.90
21246;DHT22;10781;50.928;4.440;2023-08-07T00:15:17;13.70;99.90
21246;DHT22;10781;50.928;4.440;2023-08-07T00:17:43;13.60;99.90
21246;DHT22;10781;50.928;4.440;2023-08-07T00:20:09;13.60;99.90
21246;DHT22;10781;50.928;4.440;2023-08-07T00:22:35;13.50;99.90
21246;DHT22;10781;50.928;4.440;2023-08-07T00:25:00;13.60;99.90
21246;DHT22;10781;50.928;4.440;2023-08-07T00:27:26;13.60;99.90
21246;DHT22;10781;50.928;4.440;2023-08-07T00:29:52;13.60;99.90
21246;DHT22;10781;50.928;4.440;2023-08-07T00:32:17;13.50;99.90
21246;DHT22;10781;50.928;4.440;2023-08-07T00:34:43;13.50;99.90
21246;DHT22;10781;50.928;4.440;2023-08-07T00:37:09;13.50;99.90
21246;DHT22;10781;50.928;4.440;2023-08-07T00:39:34;13.50;99.90
21246;DHT22;10781;50.928;4.440;2023-08-07T00:42:00;13.50;99.90
21246;DHT22;10781;50.928;4.440;2023-08-07T00:44:26;13.50;99.90
21246;DHT22;10781;50.928;4.440;2023-08-07T00:46:51;13.50;99.90
21246;DHT22;10781;50.928;4.440;2023-08-07T00:49:18;13.50;99.90
21246;DHT22;10781;50.928;4.440;2023-08-07T00:51:45;13.40;99.90
21246;DHT22;10781;50.928;4.440;2023-08-07T00:54:13;13.30;99.90
21246;DHT22;10781;50.928;4.440;2023-08-07T00:56:40;13.40;99.90
21246;DHT22;10781;50.928;4.440;2023-08-07T00:59:06;13.30;99.90
21246;DHT22;10781;50.928;4.440;2023-08-07T01:01:32;13.40;99.90
21246;DHT22;10781;50.928;4.440;2023-08-07T01:03:57;13.30;99.90
21246;DHT22;10781;50.928;4.440;2023-08-07T01:06:23;13.30;99.90
21246;DHT22;10781;50.928;4.440;2023-08-07T01:08:49;13.20;99.90
21246;DHT22;10781;50.928;4.440;2023-08-07T01:14:28;13.20;99.90
21246;DHT22;10781;50.928;4.440;2023-08-07T01:17:05;13.20;99.90
21246;DHT22;10781;50.928;4.440;2023-08-07T01:19:32;13.30;99.90
21246;DHT22;10781;50.928;4.440;2023-08-07T01:22:12;13.20;99.90
21246;DHT22;10781;50.928;4.440;2023-08-07T01:24:40;13.30;99.90
21246;DHT22;10781;50.928;4.440;2023-08-07T01:35:03;13.20;99.90
21246;DHT22;10781;50.928;4.440;2023-08-07T01:37:33;13.10;99.90
21246;DHT22;10781;50.928;4.440;2023-08-07T01:40:00;13.10;99.90
21246;DHT22;10781;50.928;4.440;2023-08-07T01:42:27;13.10;99.90
21246;DHT22;10781;50.928;4.440;2023-08-07T01:44:53;13.20;99.90
21246;DHT22;10781;50.928;4.440;2023-08-07T01:47:18;13.10;99.90
21246;DHT22;10781;50.928;4.440;2023-08-07T01:49:44;13.10;99.90
21246;DHT22;10781;50.928;4.440;2023-08-07T01:52:10;13.10;99.90
21246;DHT22;10781;50.928;4.440;2023-08-07T01:54:36;13.10;99.90
21246;DHT22;10781;50.928;4.440;2023-08-07T01:57:02;13.00;99.90
21246;DHT22;10781;50.928;4.440;2023-08-07T01:59:28;13.00;99.90
21246;DHT22;10781;50.928;4.440;2023-08-07T02:01:53;12.90;99.90
21246;DHT22;10781;50.928;4.440;2023-08-07T02:04:19;12.90;99.90
21246;DHT22;10781;50.928;4.440;2023-08-07T02:06:45;12.90;99.90
21246;DHT22;10781;50.928;4.440;2023-08-07T02:09:10;13.00;99.90
21246;DHT22;10781;50.928;4.440;2023-08-07T02:11:36;13.00;99.90
21246;DHT22;10781;50.928;4.440;2023-08-07T02:14:01;12.90;99.90
21246;DHT22;10781;50.928;4.440;2023-08-07T02:16:28;12.90;99.90
21246;DHT22;10781;50.928;4.440;2023-08-07T02:18:54;12.80;99.90
21246;DHT22;10781;50.928;4.440;2023-08-07T02:21:19;12.90;99.90
21246;DHT22;10781;50.928;4.440;2023-08-07T02:23:45;12.90;99.90
21246;DHT22;10781;50.928;4.440;2023-08-07T02:26:10;13.00;99.90
21246;DHT22;10781;50.928;4.440;2023-08-07T02:28:36;13.00;99.90
21246;DHT22;10781;50.928;4.440;2023-08-07T02:31:02;13.00;99.90
21246;DHT22;10781;50.928;4.440;2023-08-07T02:33:27;12.90;99.90
21246;DHT22;10781;50.928;4.440;2023-08-07T02:35:56;12.90;99.90
21246;DHT22;10781;50.928;4.440;2023-08-07T02:38:21;13.00;99.90
21246;DHT22;10781;50.928;4.440;2023-08-07T02:40:47;13.00;99.90
21246;DHT22;10781;50.928;4.440;2023-08-07T02:43:13;13.20;99.90
21246;DHT22;10781;50.928;4.440;2023-08-07T02:45:38;13.20;99.90
21246;DHT22;10781;50.928;4.440;2023-08-07T02:48:04;13.10;99.90
21246;DHT22;10781;50.928;4.440;2023-08-07T02:50:31;13.00;99.90
21246;DHT22;10781;50.928;4.440;2023-08-07T02:52:58;13.00;99.90
21246;DHT22;10781;50.928;4.440;2023-08-07T02:55:24;13.10;99.90
21246;DHT22;10781;50.928;4.440;2023-08-07T02:57:50;13.00;99.90
21246;DHT22;10781;50.928;4.440;2023-08-07T03:00:15;13.00;99.90
21246;DHT22;10781;50.928;4.440;2023-08-07T03:02:41;13.00;99.90
21246;DHT22;10781;50.928;4.440;2023-08-07T03:05:07;13.10;99.90
21246;DHT22;10781;50.928;4.440;2023-08-07T03:07:33;12.90;99.90
21246;DHT22;10781;50.928;4.440;2023-08-07T03:09:59;12.80;99.90
21246;DHT22;10781;50.928;4.440;2023-08-07T03:12:24;12.80;99.90
21246;DHT22;10781;50.928;4.440;2023-08-07T03:14:50;12.80;99.90
21246;DHT22;10781;50.928;4.440;2023-08-07T03:17:16;12.70;99.90
21246;DHT22;10781;50.928;4.440;2023-08-07T03:19:43;12.70;99.90
21246;DHT22;10781;50.928;4.440;2023-08-07T03:22:09;12.80;99.90
21246;DHT22;10781;50.928;4.440;2023-08-07T03:24:35;12.70;99.90
21246;DHT22;10781;50.928;4.440;2023-08-07T03:27:00;12.70;99.90
21246;DHT22;10781;50.928;4.440;2023-08-07T03:29:26;12.60;99.90
21246;DHT22;10781;50.928;4.440;2023-08-07T03:31:52;12.60;99.90
21246;DHT22;10781;50.928;4.440;2023-08-07T03:34:18;12.70;99.90
21246;DHT22;10781;50.928;4.440;2023-08-07T03:36:45;12.70;99.90
21246;DHT22;10781;50.928;4.440;2023-08-07T03:39:10;12.70;99.90
21246;DHT22;10781;50.928;4.440;2023-08-07T03:41:37;12.70;99.90
21246;DHT22;10781;50.928;4.440;2023-08-07T03:44:03;12.70;99.90
21246;DHT22;10781;50.928;4.440;2023-08-07T03:46:29;12.70;99.90
21246;DHT22;10781;50.928;4.440;2023-08-07T03:48:55;12.80;99.90
21246;DHT22;10781;50.928;4.440;2023-08-07T03:51:20;12.80;99.90
21246;DHT22;10781;50.928;4.440;2023-08-07T03:53:46;12.80;99.90
21246;DHT22;10781;50.928;4.440;2023-08-07T03:56:12;13.00;99.90
21246;DHT22;10781;50.928;4.440;2023-08-07T03:58:37;13.00;99.90
21246;DHT22;10781;50.928;4.440;2023-08-07T04:01:03;13.00;99.90
21246;DHT22;10781;50.928;4.440;2023-08-07T04:03:29;12.90;99.90
21246;DHT22;10781;50.928;4.440;2023-08-07T04:05:54;12.90;99.90
21246;DHT22;10781;50.928;4.440;2023-08-07T04:08:23;13.00;99.90
21246;DHT22;10781;50.928;4.440;2023-08-07T04:11:03;13.00;99.90
21246;DHT22;10781;50.928;4.440;2023-08-07T04:13:30;13.00;99.90
21246;DHT22;10781;50.928;4.440;2023-08-07T04:15:56;12.90;99.90
21246;DHT22;10781;50.928;4.440;2023-08-07T04:18:22;12.90;99.90
21246;DHT22;10781;50.928;4.440;2023-08-07T04:20:55;12.80;99.90
21246;DHT22;10781;50.928;4.440;2023-08-07T04:23:21;12.80;99.90
21246;DHT22;10781;50.928;4.440;2023-08-07T04:25:47;12.70;99.90
21246;DHT22;10781;50.928;4.440;2023-08-07T04:28:13;12.70;99.90
21246;DHT22;10781;50.928;4.440;2023-08-07T04:30:39;12.70;99.90
21246;DHT22;10781;50.928;4.440;2023-08-07T04:33:05;12.80;99.90
21246;DHT22;10781;50.928;4.440;2023-08-07T04:35:31;12.80;99.90
21246;DHT22;10781;50.928;4.440;2023-08-07T04:37:57;12.80;99.90
21246;DHT22;10781;50.928;4.440;2023-08-07T04:40:23;12.90;99.90
21246;DHT22;10781;50.928;4.440;2023-08-07T04:42:51;13.00;99.90
21246;DHT22;10781;50.928;4.440;2023-08-07T04:45:17;13.00;99.90
21246;DHT22;10781;50.928;4.440;2023-08-07T04:47:43;13.00;99.90
21246;DHT22;10781;50.928;4.440;2023-08-07T04:50:09;13.10;99.90
21246;DHT22;10781;50.928;4.440;2023-08-07T04:52:35;13.00;99.90
21246;DHT22;10781;50.928;4.440;2023-08-07T04:55:01;13.00;99.90
21246;DHT22;10781;50.928;4.440;2023-08-07T04:57:27;12.90;99.90
21246;DHT22;10781;50.928;4.440;2023-08-07T04:59:53;12.90;99.90
21246;DHT22;10781;50.928;4.440;2023-08-07T05:02:19;12.90;99.90
21246;DHT22;10781;50.928;4.440;2023-08-07T05:04:45;12.90;99.90
21246;DHT22;10781;50.928;4.440;2023-08-07T05:07:11;12.90;99.90
21246;DHT22;10781;50.928;4.440;2023-08-07T05:09:36;12.90;99.90
21246;DHT22;10781;50.928;4.440;2023-08-07T05:12:02;13.00;99.90
21246;DHT22;10781;50.928;4.440;2023-08-07T05:14:29;13.10;99.90
21246;DHT22;10781;50.928;4.440;2023-08-07T05:16:55;13.10;99.90
21246;DHT22;10781;50.928;4.440;2023-08-07T05:19:20;13.10;99.90
21246;DHT22;10781;50.928;4.440;2023-08-07T05:21:47;13.10;99.90
21246;DHT22;10781;50.928;4.440;2023-08-07T05:24:15;13.20;99.90
21246;DHT22;10781;50.928;4.440;2023-08-07T05:26:41;13.20;99.90
21246;DHT22;10781;50.928;4.440;2023-08-07T05:29:07;13.30;99.90
21246;DHT22;10781;50.928;4.440;2023-08-07T05:31:33;13.40;99.90
21246;DHT22;10781;50.928;4.440;2023-08-07T05:33:59;13.50;99.90
21246;DHT22;10781;50.928;4.440;2023-08-07T05:36:25;13.60;99.90
21246;DHT22;10781;50.928;4.440;2023-08-07T05:38:51;13.70;99.90
21246;DHT22;10781;50.928;4.440;2023-08-07T05:41:19;13.80;99.90
21246;DHT22;10781;50.928;4.440;2023-08-07T05:43:48;13.70;99.90
21246;DHT22;10781;50.928;4.440;2023-08-07T05:46:14;13.80;99.90
21246;DHT22;10781;50.928;4.440;2023-08-07T05:48:40;13.90;99.90
21246;DHT22;10781;50.928;4.440;2023-08-07T05:51:06;14.00;99.90
21246;DHT22;10781;50.928;4.440;2023-08-07T05:53:33;14.10;99.90
21246;DHT22;10781;50.928;4.440;2023-08-07T05:55:59;14.10;99.90
21246;DHT22;10781;50.928;4.440;2023-08-07T05:58:25;14.10;99.90
21246;DHT22;10781;50.928;4.440;2023-08-07T06:00:50;14.30;99.90
21246;DHT22;10781;50.928;4.440;2023-08-07T06:03:16;14.30;99.90
21246;DHT22;10781;50.928;4.440;2023-08-07T06:05:41;14.40;99.90
21246;DHT22;10781;50.928;4.440;2023-08-07T06:08:07;14.50;99.90
21246;DHT22;10781;50.928;4.440;2023-08-07T06:10:34;14.50;99.90
21246;DHT22;10781;50.928;4.440;2023-08-07T06:12:59;14.70;99.90
21246;DHT22;10781;50.928;4.440;2023-08-07T06:15:25;14.70;99.90
21246;DHT22;10781;50.928;4.440;2023-08-07T06:17:50;14.80;99.90
21246;DHT22;10781;50.928;4.440;2023-08-07T06:20:17;14.80;99.90
21246;DHT22;10781;50.928;4.440;2023-08-07T06:22:43;14.90;99.90
21246;DHT22;10781;50.928;4.440;2023-08-07T06:25:08;14.90;99.90
21246;DHT22;10781;50.928;4.440;2023-08-07T06:27:34;15.10;99.90
21246;DHT22;10781;50.928;4.440;2023-08-07T06:30:00;15.20;99.90
21246;DHT22;10781;50.928;4.440;2023-08-07T06:32:26;15.40;99.90
21246;DHT22;10781;50.928;4.440;2023-08-07T06:34:52;15.40;99.90
21246;DHT22;10781;50.928;4.440;2023-08-07T06:37:18;15.50;99.90
21246;DHT22;10781;50.928;4.440;2023-08-07T06:39:44;15.60;99.90
21246;DHT22;10781;50.928;4.440;2023-08-07T06:42:11;15.70;99.90
21246;DHT22;10781;50.928;4.440;2023-08-07T06:44:37;15.70;99.90
21246;DHT22;10781;50.928;4.440;2023-08-07T06:47:03;15.80;99.90
21246;DHT22;10781;50.928;4.440;2023-08-07T06:49:29;15.90;99.90
21246;DHT22;10781;50.928;4.440;2023-08-07T06:51:57;15.80;99.90
21246;DHT22;10781;50.928;4.440;2023-08-07T06:54:23;16.00;99.90
21246;DHT22;10781;50.928;4.440;2023-08-07T06:56:49;16.20;99.90
21246;DHT22;10781;50.928;4.440;2023-08-07T06:59:14;16.40;99.90
21246;DHT22;10781;50.928;4.440;2023-08-07T07:01:40;17.40;99.90
21246;DHT22;10781;50.928;4.440;2023-08-07T07:04:06;18.90;99.90
21246;DHT22;10781;50.928;4.440;2023-08-07T07:06:31;19.70;99.90
21246;DHT22;10781;50.928;4.440;2023-08-07T07:08:57;20.70;99.90
21246;DHT22;10781;50.928;4.440;2023-08-07T07:11:23;21.50;99.90
21246;DHT22;10781;50.928;4.440;2023-08-07T07:13:50;22.00;99.90
21246;DHT22;10781;50.928;4.440;2023-08-07T07:16:20;22.10;99.90
21246;DHT22;10781;50.928;4.440;2023-08-07T07:18:50;22.60;99.90
21246;DHT22;10781;50.928;4.440;2023-08-07T07:21:16;22.80;99.90
21246;DHT22;10781;50.928;4.440;2023-08-07T07:23:42;23.10;99.90
21246;DHT22;10781;50.928;4.440;2023-08-07T07:26:07;23.60;99.90
21246;DHT22;10781;50.928;4.440;2023-08-07T07:28:33;24.30;99.90
21246;DHT22;10781;50.928;4.440;2023-08-07T07:30:59;24.50;99.90
21246;DHT22;10781;50.928;4.440;2023-08-07T07:33:25;24.90;99.90
21246;DHT22;10781;50.928;4.440;2023-08-07T07:35:50;25.50;99.90
21246;DHT22;10781;50.928;4.440;2023-08-07T07:38:16;24.90;99.90
21246;DHT22;10781;50.928;4.440;2023-08-07T07:40:42;25.30;99.90
21246;DHT22;10781;50.928;4.440;2023-08-07T07:43:07;25.80;99.90
21246;DHT22;10781;50.928;4.440;2023-08-07T07:45:33;25.30;99.90
21246;DHT22;10781;50.928;4.440;2023-08-07T07:48:01;24.30;99.90
21246;DHT22;10781;50.928;4.440;2023-08-07T07:50:27;24.10;99.90
21246;DHT22;10781;50.928;4.440;2023-08-07T07:52:53;23.70;99.90
21246;DHT22;10781;50.928;4.440;2023-08-07T07:55:18;23.80;99.90
21246;DHT22;10781;50.928;4.440;2023-08-07T07:57:44;24.20;99.90
21246;DHT22;10781;50.928;4.440;2023-08-07T08:00:10;24.50;99.90
21246;DHT22;10781;50.928;4.440;2023-08-07T08:02:37;25.20;99.90
21246;DHT22;10781;50.928;4.440;2023-08-07T08:05:03;24.80;99.90
21246;DHT22;10781;50.928;4.440;2023-08-07T08:07:29;25.00;99.90
21246;DHT22;10781;50.928;4.440;2023-08-07T08:09:54;25.30;99.90
21246;DHT22;10781;50.928;4.440;2023-08-07T08:12:21;25.40;99.90
21246;DHT22;10781;50.928;4.440;2023-08-07T08:14:47;25.50;99.90
21246;DHT22;10781;50.928;4.440;2023-08-07T08:17:13;25.20;99.90
21246;DHT22;10781;50.928;4.440;2023-08-07T08:19:39;25.90;99.90
21246;DHT22;10781;50.928;4.440;2023-08-07T08:22:05;26.60;99.90
21246;DHT22;10781;50.928;4.440;2023-08-07T08:24:30;26.00;99.90
21246;DHT22;10781;50.928;4.440;2023-08-07T08:26:57;25.80;99.90
21246;DHT22;10781;50.928;4.440;2023-08-07T08:29:22;26.30;99.90
21246;DHT22;10781;50.928;4.440;2023-08-07T08:31:48;28.00;99.90
21246;DHT22;10781;50.928;4.440;2023-08-07T08:34:14;28.10;99.90
21246;DHT22;10781;50.928;4.440;2023-08-07T08:36:39;27.50;99.90
21246;DHT22;10781;50.928;4.440;2023-08-07T08:39:05;25.20;99.90
21246;DHT22;10781;50.928;4.440;2023-08-07T08:41:31;23.20;99.90
21246;DHT22;10781;50.928;4.440;2023-08-07T08:43:57;22.40;99.90
21246;DHT22;10781;50.928;4.440;2023-08-07T08:46:28;21.60;99.90
21246;DHT22;10781;50.928;4.440;2023-08-07T08:48:57;20.90;99.90
21246;DHT22;10781;50.928;4.440;2023-08-07T08:51:24;20.70;99.90
21246;DHT22;10781;50.928;4.440;2023-08-07T08:53:52;21.70;99.90
21246;DHT22;10781;50.928;4.440;2023-08-07T08:56:22;21.70;99.90
21246;DHT22;10781;50.928;4.440;2023-08-07T08:58:51;21.80;99.90
21246;DHT22;10781;50.928;4.440;2023-08-07T09:01:20;23.20;99.90
21246;DHT22;10781;50.928;4.440;2023-08-07T09:03:46;25.50;99.90
21246;DHT22;10781;50.928;4.440;2023-08-07T09:06:13;26.60;99.90
21246;DHT22;10781;50.928;4.440;2023-08-07T09:08:42;26.30;99.90
21246;DHT22;10781;50.928;4.440;2023-08-07T09:11:08;26.60;99.90
21246;DHT22;10781;50.928;4.440;2023-08-07T09:13:36;25.00;99.90
21246;DHT22;10781;50.928;4.440;2023-08-07T09:16:04;24.10;99.90
21246;DHT22;10781;50.928;4.440;2023-08-07T09:18:32;23.00;99.90
21246;DHT22;10781;50.928;4.440;2023-08-07T09:21:00;23.40;99.90
21246;DHT22;10781;50.928;4.440;2023-08-07T09:23:26;24.60;99.90
21246;DHT22;10781;50.928;4.440;2023-08-07T09:26:04;25.60;99.90
21246;DHT22;10781;50.928;4.440;2023-08-07T09:28:32;26.80;99.90
21246;DHT22;10781;50.928;4.440;2023-08-07T09:30:58;27.90;99.90
21246;DHT22;10781;50.928;4.440;2023-08-07T09:33:28;28.90;99.90
21246;DHT22;10781;50.928;4.440;2023-08-07T09:35:58;27.60;99.90
21246;DHT22;10781;50.928;4.440;2023-08-07T09:38:31;28.20;98.60
21246;DHT22;10781;50.928;4.440;2023-08-07T09:41:00;28.70;95.60
21246;DHT22;10781;50.928;4.440;2023-08-07T09:43:26;28.60;94.60
21246;DHT22;10781;50.928;4.440;2023-08-07T09:45:51;26.90;96.00
21246;DHT22;10781;50.928;4.440;2023-08-07T09:48:24;25.80;99.00
21246;DHT22;10781;50.928;4.440;2023-08-07T09:50:54;24.00;99.90
21246;DHT22;10781;50.928;4.440;2023-08-07T09:53:27;23.20;99.90
21246;DHT22;10781;50.928;4.440;2023-08-07T09:55:56;24.30;99.90
21246;DHT22;10781;50.928;4.440;2023-08-07T09:58:22;26.00;99.90
21246;DHT22;10781;50.928;4.440;2023-08-07T10:00:48;28.00;96.90
21246;DHT22;10781;50.928;4.440;2023-08-07T10:03:14;28.90;95.00
21246;DHT22;10781;50.928;4.440;2023-08-07T10:05:42;27.30;93.70
21246;DHT22;10781;50.928;4.440;2023-08-07T10:08:10;25.70;96.70
21246;DHT22;10781;50.928;4.440;2023-08-07T10:10:37;25.00;99.00
21246;DHT22;10781;50.928;4.440;2023-08-07T10:13:03;24.60;99.90
21246;DHT22;10781;50.928;4.440;2023-08-07T10:15:31;25.60;98.80
21246;DHT22;10781;50.928;4.440;2023-08-07T10:17:57;26.80;97.70
21246;DHT22;10781;50.928;4.440;2023-08-07T10:20:25;28.20;95.00
21246;DHT22;10781;50.928;4.440;2023-08-07T10:22:52;29.30;92.70
21246;DHT22;10781;50.928;4.440;2023-08-07T10:25:21;29.60;90.90
21246;DHT22;10781;50.928;4.440;2023-08-07T10:27:50;29.40;91.10
21246;DHT22;10781;50.928;4.440;2023-08-07T10:30:18;30.90;89.00
21246;DHT22;10781;50.928;4.440;2023-08-07T10:32:45;30.50;86.40
21246;DHT22;10781;50.928;4.440;2023-08-07T10:35:25;29.20;88.70
21246;DHT22;10781;50.928;4.440;2023-08-07T10:37:52;27.90;90.50
21246;DHT22;10781;50.928;4.440;2023-08-07T10:40:21;26.50;92.50
21246;DHT22;10781;50.928;4.440;2023-08-07T10:45:21;26.80;93.60
21246;DHT22;10781;50.928;4.440;2023-08-07T10:50:34;27.20;90.80
21246;DHT22;10781;50.928;4.440;2023-08-07T10:53:04;26.30;91.10
21246;DHT22;10781;50.928;4.440;2023-08-07T10:55:46;26.20;92.70
21246;DHT22;10781;50.928;4.440;2023-08-07T11:00:50;26.90;91.90
21246;DHT22;10781;50.928;4.440;2023-08-07T11:03:42;27.10;91.70
21246;DHT22;10781;50.928;4.440;2023-08-07T11:06:09;29.20;91.50
21246;DHT22;10781;50.928;4.440;2023-08-07T11:08:36;30.50;85.80
21246;DHT22;10781;50.928;4.440;2023-08-07T11:11:06;31.90;82.60
21246;DHT22;10781;50.928;4.440;2023-08-07T11:13:35;30.40;80.60
21246;DHT22;10781;50.928;4.440;2023-08-07T11:16:04;28.00;82.70
21246;DHT22;10781;50.928;4.440;2023-08-07T11:18:31;28.00;90.10
21246;DHT22;10781;50.928;4.440;2023-08-07T11:20:57;29.60;84.30
21246;DHT22;10781;50.928;4.440;2023-08-07T11:23:24;31.20;81.30
21246;DHT22;10781;50.928;4.440;2023-08-07T11:25:50;30.30;80.80
21246;DHT22;10781;50.928;4.440;2023-08-07T11:28:20;29.10;82.90
21246;DHT22;10781;50.928;4.440;2023-08-07T11:30:52;28.80;83.10
21246;DHT22;10781;50.928;4.440;2023-08-07T11:33:19;28.80;84.20
21246;DHT22;10781;50.928;4.440;2023-08-07T11:35:48;28.20;85.10
21246;DHT22;10781;50.928;4.440;2023-08-07T11:40:58;26.60;87.90
21246;DHT22;10781;50.928;4.440;2023-08-07T11:43:24;27.20;89.50
21246;DHT22;10781;50.928;4.440;2023-08-07T11:45:52;27.20;87.70
21246;DHT22;10781;50.928;4.440;2023-08-07T11:48:17;26.80;89.30
21246;DHT22;10781;50.928;4.440;2023-08-07T11:50:43;26.20;90.40
21246;DHT22;10781;50.928;4.440;2023-08-07T11:53:09;25.10;91.30
21246;DHT22;10781;50.928;4.440;2023-08-07T11:55:35;24.50;92.70
21246;DHT22;10781;50.928;4.440;2023-08-07T11:58:04;25.70;93.60
21246;DHT22;10781;50.928;4.440;2023-08-07T12:00:31;28.70;92.00
21246;DHT22;10781;50.928;4.440;2023-08-07T12:02:56;29.60;88.40
21246;DHT22;10781;50.928;4.440;2023-08-07T12:05:22;27.70;87.00
21246;DHT22;10781;50.928;4.440;2023-08-07T12:07:49;26.90;90.60
21246;DHT22;10781;50.928;4.440;2023-08-07T12:10:14;26.20;92.00
21246;DHT22;10781;50.928;4.440;2023-08-07T12:12:42;25.70;92.30
21246;DHT22;10781;50.928;4.440;2023-08-07T12:15:09;25.10;92.60
21246;DHT22;10781;50.928;4.440;2023-08-07T12:17:36;24.80;94.60
21246;DHT22;10781;50.928;4.440;2023-08-07T12:20:04;26.10;95.40
21246;DHT22;10781;50.928;4.440;2023-08-07T12:22:32;28.40;92.10
21246;DHT22;10781;50.928;4.440;2023-08-07T12:24:57;30.20;90.70
21246;DHT22;10781;50.928;4.440;2023-08-07T12:27:23;30.80;86.00
21246;DHT22;10781;50.928;4.440;2023-08-07T12:29:49;29.70;86.80
21246;DHT22;10781;50.928;4.440;2023-08-07T12:32:15;28.50;85.80
21246;DHT22;10781;50.928;4.440;2023-08-07T12:34:40;28.60;90.40
21246;DHT22;10781;50.928;4.440;2023-08-07T12:37:06;30.70;88.10
21246;DHT22;10781;50.928;4.440;2023-08-07T12:39:32;30.90;84.80
21246;DHT22;10781;50.928;4.440;2023-08-07T12:41:57;29.20;85.90
21246;DHT22;10781;50.928;4.440;2023-08-07T12:44:23;28.50;87.40
21246;DHT22;10781;50.928;4.440;2023-08-07T12:46:49;28.60;89.90
21246;DHT22;10781;50.928;4.440;2023-08-07T12:49:15;29.40;85.50
21246;DHT22;10781;50.928;4.440;2023-08-07T12:51:41;30.50;85.70
21246;DHT22;10781;50.928;4.440;2023-08-07T12:54:06;32.30;81.70
21246;DHT22;10781;50.928;4.440;2023-08-07T12:56:32;33.60;77.60
21246;DHT22;10781;50.928;4.440;2023-08-07T12:58:58;32.30;74.30
21246;DHT22;10781;50.928;4.440;2023-08-07T13:01:24;32.60;74.70
21246;DHT22;10781;50.928;4.440;2023-08-07T13:03:51;33.50;73.70
21246;DHT22;10781;50.928;4.440;2023-08-07T13:06:16;33.40;72.10
21246;DHT22;10781;50.928;4.440;2023-08-07T13:08:42;32.60;72.30
21246;DHT22;10781;50.928;4.440;2023-08-07T13:11:08;31.90;73.00
21246;DHT22;10781;50.928;4.440;2023-08-07T13:13:33;32.50;73.70
21246;DHT22;10781;50.928;4.440;2023-08-07T13:15:59;32.90;72.50
21246;DHT22;10781;50.928;4.440;2023-08-07T13:18:24;33.40;69.30
21246;DHT22;10781;50.928;4.440;2023-08-07T13:20:50;32.90;67.80
21246;DHT22;10781;50.928;4.440;2023-08-07T13:23:16;31.90;70.60
21246;DHT22;10781;50.928;4.440;2023-08-07T13:25:41;31.80;72.60
21246;DHT22;10781;50.928;4.440;2023-08-07T13:28:07;32.10;71.30
21246;DHT22;10781;50.928;4.440;2023-08-07T13:30:33;32.10;70.90
21246;DHT22;10781;50.928;4.440;2023-08-07T13:32:59;31.10;72.80
21246;DHT22;10781;50.928;4.440;2023-08-07T13:35:25;30.00;75.60
21246;DHT22;10781;50.928;4.440;2023-08-07T13:37:50;28.80;76.70
21246;DHT22;10781;50.928;4.440;2023-08-07T13:40:16;28.30;76.70
21246;DHT22;10781;50.928;4.440;2023-08-07T13:42:41;29.50;76.40
21246;DHT22;10781;50.928;4.440;2023-08-07T13:45:07;29.60;75.60
21246;DHT22;10781;50.928;4.440;2023-08-07T13:47:35;30.10;74.60
21246;DHT22;10781;50.928;4.440;2023-08-07T13:50:01;31.10;72.10
21246;DHT22;10781;50.928;4.440;2023-08-07T13:52:27;31.60;71.00
21246;DHT22;10781;50.928;4.440;2023-08-07T13:54:53;32.00;70.00
21246;DHT22;10781;50.928;4.440;2023-08-07T13:57:18;32.20;71.90
21246;DHT22;10781;50.928;4.440;2023-08-07T13:59:44;31.30;70.10
21246;DHT22;10781;50.928;4.440;2023-08-07T14:02:10;30.20;72.70
21246;DHT22;10781;50.928;4.440;2023-08-07T14:04:35;28.60;73.80
21246;DHT22;10781;50.928;4.440;2023-08-07T14:07:02;28.20;77.60
21246;DHT22;10781;50.928;4.440;2023-08-07T14:09:28;28.90;78.50
21246;DHT22;10781;50.928;4.440;2023-08-07T14:11:53;29.70;76.00
21246;DHT22;10781;50.928;4.440;2023-08-07T14:14:21;29.90;74.80
21246;DHT22;10781;50.928;4.440;2023-08-07T14:16:46;29.70;76.90
21246;DHT22;10781;50.928;4.440;2023-08-07T14:19:12;29.90;74.80
21246;DHT22;10781;50.928;4.440;2023-08-07T14:21:38;30.50;73.50
21246;DHT22;10781;50.928;4.440;2023-08-07T14:24:05;30.30;73.70
21246;DHT22;10781;50.928;4.440;2023-08-07T14:26:31;30.70;73.40
21246;DHT22;10781;50.928;4.440;2023-08-07T14:28:56;30.80;72.10
21246;DHT22;10781;50.928;4.440;2023-08-07T14:31:22;31.50;71.60
21246;DHT22;10781;50.928;4.440;2023-08-07T14:33:47;31.80;70.90
21246;DHT22;10781;50.928;4.440;2023-08-07T14:36:13;30.90;68.70
21246;DHT22;10781;50.928;4.440;2023-08-07T14:38:40;30.50;70.90
21246;DHT22;10781;50.928;4.440;2023-08-07T14:41:06;30.70;69.50
21246;DHT22;10781;50.928;4.440;2023-08-07T14:43:31;30.70;72.10
21246;DHT22;10781;50.928;4.440;2023-08-07T14:45:58;29.60;69.60
21246;DHT22;10781;50.928;4.440;2023-08-07T14:48:23;29.70;69.70
21246;DHT22;10781;50.928;4.440;2023-08-07T14:50:49;30.20;71.80
21246;DHT22;10781;50.928;4.440;2023-08-07T14:53:15;30.70;71.60
21246;DHT22;10781;50.928;4.440;2023-08-07T14:55:40;30.30;70.20
21246;DHT22;10781;50.928;4.440;2023-08-07T14:58:07;29.80;73.60
21246;DHT22;10781;50.928;4.440;2023-08-07T15:00:34;29.20;73.90
21246;DHT22;10781;50.928;4.440;2023-08-07T15:03:00;28.30;74.90
21246;DHT22;10781;50.928;4.440;2023-08-07T15:05:25;27.60;76.30
21246;DHT22;10781;50.928;4.440;2023-08-07T15:07:51;27.50;79.30
21246;DHT22;10781;50.928;4.440;2023-08-07T15:10:17;28.40;80.20
21246;DHT22;10781;50.928;4.440;2023-08-07T15:12:43;28.80;77.30
21246;DHT22;10781;50.928;4.440;2023-08-07T15:15:08;29.40;77.60
21246;DHT22;10781;50.928;4.440;2023-08-07T15:17:34;30.70;76.60
21246;DHT22;10781;50.928;4.440;2023-08-07T15:20:00;30.70;73.70
21246;DHT22;10781;50.928;4.440;2023-08-07T15:22:25;30.60;73.70
21246;DHT22;10781;50.928;4.440;2023-08-07T15:24:51;31.00;72.10
21246;DHT22;10781;50.928;4.440;2023-08-07T15:27:17;30.90;72.00
21246;DHT22;10781;50.928;4.440;2023-08-07T15:29:44;30.30;72.70
21246;DHT22;10781;50.928;4.440;2023-08-07T15:32:11;29.50;71.60
21246;DHT22;10781;50.928;4.440;2023-08-07T15:34:39;28.20;74.10
21246;DHT22;10781;50.928;4.440;2023-08-07T15:37:05;27.70;75.60
21246;DHT22;10781;50.928;4.440;2023-08-07T15:39:30;27.80;75.10
21246;DHT22;10781;50.928;4.440;2023-08-07T15:41:56;27.40;76.60
21246;DHT22;10781;50.928;4.440;2023-08-07T15:44:22;26.80;76.60
21246;DHT22;10781;50.928;4.440;2023-08-07T15:46:47;26.50;78.60